createdAt,value
2023-04-02T00:01:53.205Z,98137.31
2023-04-02T00:04:22.502Z,98137.31
2023-04-02T00:07:15.312Z,98143.38
2023-04-02T00:09:43.034Z,98137.28
2023-04-02T00:12:19.124Z,98140.75
2023-04-02T00:14:49.637Z,98140.72
2023-04-02T00:17:17.286Z,98143.31
2023-04-02T00:19:53.109Z,98147.66
2023-04-02T00:22:25.782Z,98138.12
2023-04-02T00:24:54.900Z,98141.59
2023-04-02T00:27:22.787Z,98149.31
2023-04-02T00:29:52.545Z,98144.19
2023-04-02T00:32:33.759Z,98146.78
2023-04-02T00:35:02.585Z,98144.19
2023-04-02T00:37:42.190Z,98145.94
2023-04-02T00:40:17.368Z,98142.41
2023-04-02T00:42:46.480Z,98148.44
2023-04-02T00:45:24.628Z,98158.88
2023-04-02T00:47:52.909Z,98155.41
2023-04-02T00:50:32.434Z,98156.22
2023-04-02T00:53:00.537Z,98161.47
2023-04-02T00:55:36.317Z,98160.59
2023-04-02T00:58:04.600Z,98162.34
2023-04-02T01:00:36.786Z,98149.37
2023-04-02T01:03:19.579Z,98149.37
2023-04-02T01:05:50.594Z,98155.44
2023-04-02T01:08:39.617Z,98149.37
2023-04-02T01:11:50.782Z,98150.25
2023-04-02T01:14:41.304Z,98146.81
2023-04-02T01:17:32.639Z,98158.88
2023-04-02T01:20:15.320Z,98155.44
2023-04-02T01:22:58.114Z,98155.44
2023-04-02T01:25:30.739Z,98156.28
2023-04-02T01:28:07.545Z,98163.19
2023-04-02T01:30:36.630Z,98161.44
2023-04-02T01:33:05.663Z,98164.91
2023-04-02T01:35:36.706Z,98166.66
2023-04-02T01:38:11.823Z,98162.34
2023-04-02T01:40:46.253Z,98163.19
2023-04-02T01:43:28.936Z,98162.31
2023-04-02T01:46:00.316Z,98158.00
2023-04-02T01:48:30.637Z,98160.59
2023-04-02T01:50:59.685Z,98168.38
2023-04-02T01:53:28.717Z,98174.41
2023-04-02T01:55:59.613Z,98164.91
2023-04-02T01:58:29.381Z,98176.06
2023-04-02T02:01:01.620Z,98178.63
2023-04-02T02:03:30.296Z,98180.41
2023-04-02T02:05:58.407Z,98177.81
2023-04-02T02:08:34.617Z,98187.22
2023-04-02T02:11:03.456Z,98186.47
2023-04-02T02:13:31.941Z,98185.59
2023-04-02T02:16:00.359Z,98182.13
2023-04-02T02:18:29.000Z,98180.41
2023-04-02T02:20:59.064Z,98183.03
2023-04-02T02:23:28.755Z,98192.53
2023-04-02T02:25:56.874Z,98189.06
2023-04-02T02:28:28.054Z,98187.31
2023-04-02T02:31:05.821Z,98192.53
2023-04-02T02:33:37.435Z,98186.50
2023-04-02T02:36:33.531Z,98186.50
2023-04-02T02:39:12.668Z,98197.72
2023-04-02T02:41:46.808Z,98193.41
2023-04-02T02:44:19.953Z,98197.72
2023-04-02T02:47:14.739Z,98196.84
2023-04-02T02:49:49.951Z,98193.38
2023-04-02T02:52:21.686Z,98194.28
2023-04-02T02:54:58.717Z,98189.97
2023-04-02T02:57:36.133Z,98180.44
2023-04-02T03:00:06.335Z,98178.72
2023-04-02T03:02:36.705Z,98185.63
2023-04-02T03:05:07.571Z,98184.75
2023-04-02T03:07:37.279Z,98190.81
2023-04-02T03:10:43.553Z,98178.75
2023-04-02T03:13:22.380Z,98183.03
2023-04-02T03:15:56.074Z,98177.00
2023-04-02T03:18:41.676Z,98186.50
2023-04-02T03:21:23.142Z,98183.81
2023-04-02T03:24:10.366Z,98185.63
2023-04-02T03:26:45.983Z,98183.06
2023-04-02T03:29:20.088Z,98183.91
2023-04-02T03:32:06.090Z,98190.78
2023-04-02T03:34:58.128Z,98190.78
2023-04-02T03:37:30.069Z,98196.84
2023-04-02T03:40:15.256Z,98202.00
2023-04-02T03:42:47.834Z,98195.97
2023-04-02T03:45:23.062Z,98196.84
2023-04-02T03:48:03.324Z,98207.19
2023-04-02T03:50:46.486Z,98207.22
2023-04-02T03:53:14.121Z,98216.72
2023-04-02T03:55:43.083Z,98216.69
2023-04-02T03:58:39.708Z,98214.12
2023-04-02T04:01:18.809Z,98214.97
2023-04-02T04:04:10.898Z,98222.72
2023-04-02T04:06:42.078Z,98218.44
2023-04-02T04:09:12.403Z,98213.19
2023-04-02T04:11:45.212Z,98222.72
2023-04-02T04:14:18.274Z,98230.50
2023-04-02T04:16:56.148Z,98229.62
2023-04-02T04:19:24.365Z,98232.22
2023-04-02T04:21:57.115Z,98235.69
2023-04-02T04:24:27.250Z,98230.50
2023-04-02T04:27:04.126Z,98233.94
2023-04-02T04:29:48.100Z,98233.94
2023-04-02T04:32:35.369Z,98233.09
2023-04-02T04:35:17.672Z,98240.84
2023-04-02T04:37:49.698Z,98243.47
2023-04-02T04:40:23.922Z,98256.37
2023-04-02T04:42:55.344Z,98257.16
2023-04-02T04:45:46.031Z,98261.56
2023-04-02T04:48:21.687Z,98262.44
2023-04-02T04:50:54.379Z,98260.72
2023-04-02T04:53:26.510Z,98256.44
2023-04-02T04:56:12.513Z,98247.78
2023-04-02T04:58:51.899Z,98248.41
2023-04-02T05:01:22.619Z,98247.41
2023-04-02T05:04:27.891Z,98249.84
2023-04-02T05:07:02.903Z,98243.56
2023-04-02T05:09:52.899Z,98251.75
2023-04-02T05:12:43.971Z,98253.06
2023-04-02T05:15:20.683Z,98251.94
2023-04-02T05:17:57.723Z,98249.91
2023-04-02T05:20:26.196Z,98259.12
2023-04-02T05:23:17.161Z,98259.03
2023-04-02T05:26:14.139Z,98257.59
2023-04-02T05:29:11.232Z,98255.22
2023-04-02T05:31:42.425Z,98257.41
2023-04-02T05:34:12.036Z,98268.94
2023-04-02T05:36:39.789Z,98266.34
2023-04-02T05:39:11.298Z,98264.53
2023-04-02T05:41:42.265Z,98268.97
2023-04-02T05:44:22.526Z,98263.91
2023-04-02T05:46:57.582Z,98277.69
2023-04-02T05:49:41.660Z,98276.84
2023-04-02T05:52:16.270Z,98278.41
2023-04-02T05:54:48.829Z,98283.63
2023-04-02T05:57:39.362Z,98289.69
2023-04-02T06:00:25.549Z,98284.56
2023-04-02T06:03:07.325Z,98287.16
2023-04-02T06:05:40.406Z,98277.75
2023-04-02T06:08:13.921Z,98285.44
2023-04-02T06:10:54.300Z,98287.28
2023-04-02T06:13:23.770Z,98286.25
2023-04-02T06:15:51.654Z,98287.03
2023-04-02T06:18:33.922Z,98292.34
2023-04-02T06:21:02.603Z,98295.69
2023-04-02T06:23:38.349Z,98297.53
2023-04-02T06:26:31.739Z,98301.00
2023-04-02T06:29:17.236Z,98297.44
2023-04-02T06:31:53.175Z,98306.03
2023-04-02T06:34:23.778Z,98309.50
2023-04-02T06:36:55.830Z,98305.31
2023-04-02T06:39:25.662Z,98311.25
2023-04-02T06:42:01.507Z,98312.91
2023-04-02T06:44:38.643Z,98311.94
2023-04-02T06:47:09.776Z,98314.72
2023-04-02T06:49:51.484Z,98319.84
2023-04-02T06:52:36.599Z,98315.47
2023-04-02T06:55:17.565Z,98313.66
2023-04-02T06:57:45.480Z,98319.00
2023-04-02T07:00:39.095Z,98319.09
2023-04-02T07:03:27.606Z,98312.19
2023-04-02T07:05:56.643Z,98312.62
2023-04-02T07:08:24.794Z,98314.50
2023-04-02T07:10:56.978Z,98323.03
2023-04-02T07:13:25.545Z,98321.41
2023-04-02T07:15:54.649Z,98319.06
2023-04-02T07:18:22.325Z,98329.38
2023-04-02T07:20:52.106Z,98324.03
2023-04-02T07:23:21.194Z,98321.34
2023-04-02T07:25:50.371Z,98333.72
2023-04-02T07:28:18.891Z,98332.69
2023-04-02T07:30:47.230Z,98335.03
2023-04-02T07:33:16.453Z,98322.03
2023-04-02T07:35:44.699Z,98341.22
2023-04-02T07:38:12.182Z,98345.47
2023-04-02T07:40:39.623Z,98350.56
2023-04-02T07:43:07.573Z,98337.28
2023-04-02T07:45:35.954Z,98341.06
2023-04-02T07:48:07.921Z,98341.63
2023-04-02T07:50:35.841Z,98343.97
2023-04-02T07:53:03.643Z,98351.47
2023-04-02T07:55:31.262Z,98355.13
2023-04-02T07:57:59.758Z,98354.94
2023-04-02T08:00:28.928Z,98358.44
2023-04-02T08:02:56.930Z,98355.16
2023-04-02T08:05:24.608Z,98343.34
2023-04-02T08:07:54.332Z,98359.97
2023-04-02T08:10:23.377Z,98355.81
2023-04-02T08:12:51.181Z,98365.72
2023-04-02T08:15:18.580Z,98372.88
2023-04-02T08:17:47.916Z,98373.03
2023-04-02T08:20:18.161Z,98369.19
2023-04-02T08:22:46.621Z,98380.75
2023-04-02T08:25:14.405Z,98376.38
2023-04-02T08:27:42.331Z,98381.56
2023-04-02T08:30:12.732Z,98385.69
2023-04-02T08:32:41.497Z,98379.69
2023-04-02T08:35:10.311Z,98384.09
2023-04-02T08:37:38.211Z,98380.44
2023-04-02T08:40:10.054Z,98380.59
2023-04-02T08:42:52.938Z,98393.34
2023-04-02T08:45:25.719Z,98393.28
2023-04-02T08:47:56.622Z,98381.84
2023-04-02T08:50:37.028Z,98397.97
2023-04-02T08:53:13.138Z,98400.00
2023-04-02T08:56:17.775Z,98398.13
2023-04-02T08:58:50.323Z,98405.16
2023-04-02T09:01:35.720Z,98407.75
2023-04-02T09:04:06.379Z,98404.38
2023-04-02T09:06:34.038Z,98404.88
2023-04-02T09:09:01.509Z,98409.19
2023-04-02T09:11:48.544Z,98417.84
2023-04-02T09:14:38.634Z,98415.37
2023-04-02T09:17:16.513Z,98411.19
2023-04-02T09:19:51.257Z,98410.44
2023-04-02T09:22:25.192Z,98409.66
2023-04-02T09:24:57.347Z,98404.84
2023-04-02T09:27:30.133Z,98418.38
2023-04-02T09:30:14.395Z,98416.81
2023-04-02T09:32:48.901Z,98419.78
2023-04-02T09:35:26.172Z,98423.63
2023-04-02T09:38:30.632Z,98420.66
2023-04-02T09:40:58.633Z,98426.13
2023-04-02T09:43:37.558Z,98427.00
2023-04-02T09:46:06.562Z,98432.41
2023-04-02T09:48:36.968Z,98435.16
2023-04-02T09:51:22.893Z,98437.25
2023-04-02T09:54:06.723Z,98442.69
2023-04-02T09:56:38.486Z,98435.84
2023-04-02T09:59:07.418Z,98443.47
2023-04-02T10:01:38.789Z,98444.66
2023-04-02T10:04:46.906Z,98446.44
2023-04-02T10:07:46.225Z,98439.69
2023-04-02T10:10:30.702Z,98449.91
2023-04-02T10:13:00.475Z,98444.00
2023-04-02T10:15:52.097Z,98442.66
2023-04-02T10:18:34.540Z,98440.16
2023-04-02T10:21:03.823Z,98435.94
2023-04-02T10:23:32.032Z,98433.72
2023-04-02T10:26:06.224Z,98437.47
2023-04-02T10:29:04.482Z,98435.09
2023-04-02T10:31:48.764Z,98432.16
2023-04-02T10:34:43.245Z,98433.31
2023-04-02T10:37:35.212Z,98433.19
2023-04-02T10:40:18.275Z,98437.06
2023-04-02T10:43:03.805Z,98432.31
2023-04-02T10:45:51.263Z,98429.69
2023-04-02T10:48:18.717Z,98426.53
2023-04-02T10:51:08.002Z,98428.09
2023-04-02T10:54:07.783Z,98422.53
2023-04-02T10:56:47.874Z,98428.94
2023-04-02T10:59:21.894Z,98415.59
2023-04-02T11:01:51.677Z,98410.28
2023-04-02T11:04:23.656Z,98409.78
2023-04-02T11:07:07.069Z,98415.66
2023-04-02T11:09:42.158Z,98412.66
2023-04-02T11:12:27.467Z,98412.69
2023-04-02T11:14:55.909Z,98412.84
2023-04-02T11:17:24.244Z,98416.56
2023-04-02T11:19:52.623Z,98406.66
2023-04-02T11:22:23.962Z,98419.00
2023-04-02T11:24:53.594Z,98413.34
2023-04-02T11:27:42.150Z,98423.94
2023-04-02T11:30:15.961Z,98426.09
2023-04-02T11:32:45.363Z,98408.87
2023-04-02T11:35:31.878Z,98403.81
2023-04-02T11:38:04.758Z,98399.50
2023-04-02T11:40:44.738Z,98403.06
2023-04-02T11:43:35.497Z,98402.66
2023-04-02T11:46:29.091Z,98391.50
2023-04-02T11:49:39.725Z,98403.03
2023-04-02T11:52:23.241Z,98405.69
2023-04-02T11:55:14.870Z,98405.91
2023-04-02T11:58:05.856Z,98410.88
2023-04-02T12:00:54.939Z,98399.50
2023-04-02T12:03:43.448Z,98387.06
2023-04-02T12:06:42.448Z,98396.28
2023-04-02T12:09:36.999Z,98396.16
2023-04-02T12:12:19.013Z,98392.16
2023-04-02T12:15:00.992Z,98393.19
2023-04-02T12:17:31.146Z,98393.19
2023-04-02T12:20:13.774Z,98400.25
2023-04-02T12:22:48.711Z,98393.66
2023-04-02T12:25:31.518Z,98385.59
2023-04-02T12:28:06.525Z,98388.56
2023-04-02T12:30:35.233Z,98382.53
2023-04-02T12:33:30.617Z,98372.16
2023-04-02T12:36:01.118Z,98369.44
2023-04-02T12:38:30.990Z,98365.25
2023-04-02T12:41:01.353Z,98365.44
2023-04-02T12:43:34.652Z,98367.75
2023-04-02T12:46:05.056Z,98359.72
2023-04-02T12:48:33.544Z,98355.69
2023-04-02T12:51:01.768Z,98361.97
2023-04-02T12:53:39.708Z,98351.28
2023-04-02T12:56:10.919Z,98353.13
2023-04-02T12:58:44.931Z,98356.38
2023-04-02T13:01:28.254Z,98352.31
2023-04-02T13:04:07.300Z,98354.41
2023-04-02T13:06:36.037Z,98360.19
2023-04-02T13:09:06.750Z,98352.91
2023-04-02T13:11:41.344Z,98355.47
2023-04-02T13:14:18.662Z,98366.19
2023-04-02T13:16:46.370Z,98359.69
2023-04-02T13:19:17.422Z,98361.97
2023-04-02T13:21:46.469Z,98364.56
2023-04-02T13:24:22.103Z,98364.03
2023-04-02T13:26:51.110Z,98367.00
2023-04-02T13:29:29.876Z,98365.62
2023-04-02T13:32:08.036Z,98364.53
2023-04-02T13:34:35.943Z,98372.44
2023-04-02T13:37:03.328Z,98377.28
2023-04-02T13:39:31.195Z,98399.78
2023-04-02T13:42:01.736Z,98390.69
2023-04-02T13:44:34.041Z,98388.78
2023-04-02T13:47:02.062Z,98384.53
2023-04-02T13:49:30.251Z,98383.63
2023-04-02T13:52:00.616Z,98390.00
2023-04-02T13:54:49.181Z,98391.88
2023-04-02T13:57:17.950Z,98380.75
2023-04-02T13:59:49.194Z,98399.09
2023-04-02T14:02:24.930Z,98384.94
2023-04-02T14:04:59.543Z,98384.63
2023-04-02T14:07:52.088Z,98378.28
2023-04-02T14:10:29.911Z,98370.34
2023-04-02T14:13:13.807Z,98372.38
2023-04-02T14:15:51.007Z,98376.09
2023-04-02T14:18:42.396Z,98371.97
2023-04-02T14:21:20.008Z,98366.00
2023-04-02T14:24:08.577Z,98369.84
2023-04-02T14:26:42.815Z,98364.00
2023-04-02T14:29:22.049Z,98363.13
2023-04-02T14:32:07.822Z,98369.47
2023-04-02T14:34:49.447Z,98359.75
2023-04-02T14:37:20.899Z,98371.09
2023-04-02T14:40:14.030Z,98374.66
2023-04-02T14:42:51.388Z,98388.16
2023-04-02T14:45:37.196Z,98393.47
2023-04-02T14:48:29.960Z,98389.12
2023-04-02T14:51:06.572Z,98411.66
2023-04-02T14:54:01.316Z,98409.78
2023-04-02T14:56:33.908Z,98413.41
2023-04-02T14:59:22.985Z,98411.75
2023-04-02T15:01:55.450Z,98422.91
2023-04-02T15:04:31.602Z,98422.09
2023-04-02T15:07:05.910Z,98424.25
2023-04-02T15:09:44.408Z,98430.91
2023-04-02T15:12:28.121Z,98424.22
2023-04-02T15:15:37.000Z,98420.00
2023-04-02T15:18:12.578Z,98430.87
2023-04-02T15:21:17.458Z,98430.91
2023-04-02T15:24:33.562Z,98435.06
2023-04-02T15:27:30.048Z,98431.53
2023-04-02T15:30:20.097Z,98430.37
2023-04-02T15:32:49.445Z,98441.91
2023-04-02T15:36:06.758Z,98458.25
2023-04-02T15:38:40.924Z,98459.34
2023-04-02T15:41:15.891Z,98468.66
2023-04-02T15:44:03.156Z,98469.37
2023-04-02T15:47:19.841Z,98475.69
2023-04-02T15:49:51.012Z,98472.03
2023-04-02T15:52:33.608Z,98468.00
2023-04-02T15:55:14.938Z,98481.19
2023-04-02T15:57:42.995Z,98475.94
2023-04-02T16:00:30.884Z,98482.81
2023-04-02T16:03:31.715Z,98491.00
2023-04-02T16:06:35.293Z,98490.16
2023-04-02T16:09:22.432Z,98488.84
2023-04-02T16:12:00.981Z,98482.63
2023-04-02T16:14:44.344Z,98481.63
2023-04-02T16:17:24.827Z,98492.25
2023-04-02T16:19:57.654Z,98492.56
2023-04-02T16:22:34.132Z,98488.88
2023-04-02T16:25:23.526Z,98490.03
2023-04-02T16:28:13.022Z,98484.81
2023-04-02T16:31:11.431Z,98480.97
2023-04-02T16:33:54.130Z,98491.84
2023-04-02T16:36:27.014Z,98476.78
2023-04-02T16:39:17.526Z,98490.16
2023-04-02T16:42:25.053Z,98493.41
2023-04-02T16:45:01.461Z,98494.72
2023-04-02T16:47:46.081Z,98506.31
2023-04-02T16:50:34.513Z,98496.03
2023-04-02T16:53:11.014Z,98508.34
2023-04-02T16:56:22.274Z,98518.03
2023-04-02T16:59:03.275Z,98512.72
2023-04-02T17:01:55.651Z,98530.16
2023-04-02T17:04:48.549Z,98540.91
2023-04-02T17:07:20.687Z,98541.00
2023-04-02T17:10:15.241Z,98542.88
2023-04-02T17:12:49.328Z,98548.09
2023-04-02T17:17:58.060Z,98562.06
2023-04-02T17:20:28.411Z,98557.91
2023-04-02T17:22:57.147Z,98569.91
2023-04-02T17:25:28.993Z,98573.34
2023-04-02T17:27:58.030Z,98581.28
2023-04-02T17:30:44.686Z,98574.31
2023-04-02T17:33:16.989Z,98586.53
2023-04-02T17:36:01.039Z,98599.53
2023-04-02T17:38:48.674Z,98601.28
2023-04-02T17:41:26.861Z,98609.06
2023-04-02T17:44:46.367Z,98606.47
2023-04-02T17:47:45.698Z,98615.09
2023-04-02T17:50:18.254Z,98619.44
2023-04-02T17:52:53.791Z,98614.25
2023-04-02T17:55:25.828Z,98620.25
2023-04-02T17:58:06.214Z,98622.75
2023-04-02T18:01:07.813Z,98624.53
2023-04-02T18:03:50.727Z,98631.22
2023-04-02T18:06:25.853Z,98641.66
2023-04-02T18:09:29.316Z,98648.53
2023-04-02T18:12:07.929Z,98643.19
2023-04-02T18:14:46.544Z,98662.34
2023-04-02T18:17:39.721Z,98671.06
2023-04-02T18:20:27.860Z,98664.56
2023-04-02T18:23:23.304Z,98676.53
2023-04-02T18:26:17.779Z,98682.63
2023-04-02T18:29:17.303Z,98683.09
2023-04-02T18:32:30.672Z,98685.06
2023-04-02T18:35:08.007Z,98699.41
2023-04-02T18:38:01.627Z,98687.19
2023-04-02T18:40:38.016Z,98710.09
2023-04-02T18:43:50.156Z,98701.12
2023-04-02T18:46:37.553Z,98699.25
2023-04-02T18:49:29.620Z,98712.53
2023-04-02T18:52:03.424Z,98715.84
2023-04-02T18:54:41.749Z,98717.34
2023-04-02T18:57:28.993Z,98730.56
2023-04-02T19:00:05.970Z,98737.63
2023-04-02T19:03:06.685Z,98745.00
2023-04-02T19:05:36.819Z,98749.59
2023-04-02T19:08:39.345Z,98754.19
2023-04-02T19:11:19.315Z,98757.63
2023-04-02T19:13:51.785Z,98758.47
2023-04-02T19:16:49.385Z,98760.44
2023-04-02T19:19:27.216Z,98769.56
2023-04-02T19:22:20.372Z,98763.78
2023-04-02T19:25:19.896Z,98771.75
2023-04-02T19:28:21.884Z,98778.50
2023-04-02T19:31:09.373Z,98783.81
2023-04-02T19:33:50.605Z,98795.06
2023-04-02T19:36:41.788Z,98791.56
2023-04-02T19:39:30.684Z,98788.47
2023-04-02T19:42:02.535Z,98795.59
2023-04-02T19:44:34.699Z,98788.84
2023-04-02T19:47:03.839Z,98796.31
2023-04-02T19:49:34.914Z,98796.91
2023-04-02T19:52:03.397Z,98797.13
2023-04-02T19:54:32.280Z,98796.84
2023-04-02T19:57:05.352Z,98790.47
2023-04-02T19:59:35.716Z,98801.66
2023-04-02T20:02:07.617Z,98806.91
2023-04-02T20:04:37.904Z,98809.56
2023-04-02T20:07:06.398Z,98808.50
2023-04-02T20:09:39.475Z,98807.97
2023-04-02T20:12:09.692Z,98814.91
2023-04-02T20:14:40.819Z,98820.81
2023-04-02T20:17:09.292Z,98816.72
2023-04-02T20:19:38.288Z,98831.66
2023-04-02T20:22:06.720Z,98836.94
2023-04-02T20:24:36.956Z,98837.56
2023-04-02T20:27:05.425Z,98834.94
2023-04-02T20:29:33.867Z,98839.62
2023-04-02T20:32:02.512Z,98846.81
2023-04-02T20:34:32.967Z,98848.81
2023-04-02T20:37:01.849Z,98850.53
2023-04-02T20:39:31.143Z,98856.13
2023-04-02T20:42:02.837Z,98862.66
2023-04-02T20:44:30.553Z,98861.38
2023-04-02T20:46:58.526Z,98855.06
2023-04-02T20:49:26.992Z,98858.28
2023-04-02T20:51:54.753Z,98852.88
2023-04-02T20:54:40.733Z,98868.31
2023-04-02T20:57:08.809Z,98869.75
2023-04-02T20:59:36.383Z,98880.00
2023-04-02T21:02:03.794Z,98883.97
2023-04-02T21:04:31.564Z,98894.53
2023-04-02T21:07:00.117Z,98899.22
2023-04-02T21:09:27.625Z,98897.41
2023-04-02T21:11:55.343Z,98904.78
2023-04-02T21:14:22.808Z,98899.66
2023-04-02T21:16:50.410Z,98897.94
2023-04-02T21:19:18.103Z,98903.13
2023-04-02T21:21:45.642Z,98905.88
2023-04-02T21:24:14.133Z,98908.41
2023-04-02T21:26:42.060Z,98915.28
2023-04-02T21:29:11.420Z,98917.78
2023-04-02T21:31:39.719Z,98916.34
2023-04-02T21:34:08.554Z,98915.47
2023-04-02T21:36:37.972Z,98921.16
2023-04-02T21:39:07.382Z,98919.31
2023-04-02T21:41:37.249Z,98924.31
2023-04-02T21:44:06.668Z,98932.25
2023-04-02T21:46:36.490Z,98928.63
2023-04-02T21:49:05.112Z,98940.28
2023-04-02T21:51:33.661Z,98937.84
2023-04-02T21:54:01.289Z,98939.41
2023-04-02T21:56:36.653Z,98943.53
2023-04-02T21:59:05.723Z,98941.59
2023-04-02T22:01:35.953Z,98938.06
2023-04-02T22:04:06.327Z,98946.28
2023-04-02T22:06:41.678Z,98947.59
2023-04-02T22:09:12.708Z,98950.63
2023-04-02T22:11:44.034Z,98951.63
2023-04-02T22:14:12.006Z,98954.84
2023-04-02T22:16:40.082Z,98953.84
2023-04-02T22:19:09.870Z,98955.91
2023-04-02T22:21:38.679Z,98960.34
2023-04-02T22:24:09.180Z,98962.56
2023-04-02T22:26:37.014Z,98968.03
2023-04-02T22:29:05.139Z,98961.19
2023-04-02T22:31:33.592Z,98962.00
2023-04-02T22:34:02.584Z,98965.88
2023-04-02T22:36:30.684Z,98964.34
2023-04-02T22:38:59.512Z,98970.22
2023-04-02T22:41:29.415Z,98977.88
2023-04-02T22:43:59.048Z,98988.06
2023-04-02T22:46:27.658Z,98991.03
2023-04-02T22:48:55.872Z,98982.75
2023-04-02T22:51:24.409Z,98993.25
2023-04-02T22:53:54.097Z,98992.97
2023-04-02T22:56:24.215Z,98987.13
2023-04-02T22:58:51.934Z,98986.16
2023-04-02T23:01:26.447Z,98987.53
2023-04-02T23:03:55.043Z,98993.69
2023-04-02T23:06:23.420Z,99002.09
2023-04-02T23:08:51.381Z,98998.09
2023-04-02T23:11:24.699Z,98998.78
2023-04-02T23:13:53.951Z,98997.53
2023-04-02T23:16:23.047Z,99001.47
2023-04-02T23:18:50.700Z,99003.63
2023-04-02T23:21:19.053Z,98997.88
2023-04-02T23:23:47.579Z,99004.59
2023-04-02T23:26:16.341Z,99001.03
2023-04-02T23:28:43.955Z,99006.91
2023-04-02T23:31:17.228Z,99009.72
2023-04-02T23:33:44.895Z,99001.81
2023-04-02T23:36:25.482Z,99006.44
2023-04-02T23:38:56.293Z,99009.28
2023-04-02T23:41:26.558Z,99023.28
2023-04-02T23:43:55.569Z,99021.97
2023-04-02T23:46:23.641Z,99020.44
2023-04-02T23:48:52.201Z,99024.59
2023-04-02T23:51:19.844Z,99019.56
2023-04-02T23:53:48.173Z,99018.31
2023-04-02T23:56:16.175Z,99028.03
2023-04-02T23:58:43.684Z,99022.16
